Indian River, Michigan
Current Conditions -  °F | °C
As of 4:54 AM on Saturday 22 Nov 2014 (Local Time) from KPLN Reporting Station
Overcast Overcast  
Wind Chill: 24°   Ceiling: 1800
Heat Index: 35°   Visibility: 10mi
Dew Point: 27°   Wind: 18mph
Humidity: 72%   Direction: 230°SW
Pressure: 29.89"   Gusts: 31mph
Location:  45.41°N, 84.61°W
Report Text: KPLN 220954Z AUTO 23016G27KT 10SM OVC018 02/M03 A2989 RMK AO2 PK WND 21029/0937 SLP131 T00171028
Loading
Personal Weather Stations






























Interactive Weather Map New forecast layout! Learn more

10-Day Weather Forecast

Advertisements
Track Severe Weather on mobile